Depesze METAR lotnisk w Polsce

EPWA EPMO EPKK EPLL EPWR EPKT EPGD EPPO EPRZ EPSC EPLB EPBY EPZG EPSY EPCE EPDA EPDE EPIR EPKS EPLK EPLY EPMB EPMI EPMM EPNA EPOK EPPR EPPW EPRA EPSN EPTM

METAR – format kodowanego raportu o pogodzie używany w meteorologii lotniczej i prognozie pogody. METAR jest akronimem od ang. Meteorological Aerodrome Report. Typowy METAR zawiera informację o temperaturze, ciśnieniu, temperaturze punktu rosy, sile i kierunku wiatru, opadzie, pokrywie chmur, wysokości podstawy chmur, widzialności, lecz może zawierać też inne informacje (np. stan dróg startowych).

Postaw mi kawę na buycoffee.to

Warszawa-Okęcie (EPWA)

METAR = EPWA 260930Z 33005KT 6000 OVC006 01/M00 Q1025 NOSIG

STACJA........... EPWA - Warszawa-Okęcie (WAW)
POMIAR........... Sat Nov 26, 10:30 CET
WIATR............ północno północno-zachodni (NNW) z prędkością 9 km/h
WIDZIALNOŚĆ...... 6000 metrów
CHMURY........... zachmurzenie całkowite (8/8)
TEMPERATURA...... 1°C
T.PUNKTU ROSY.... 0°C
WILGOTNOŚĆ....... 93%
T.ODCZUWALNA..... -2°C
CIŚNIENIE........ 1025 hPa
CIŚN.BEZWZGL..... 1011 hPa
PROGNOZA......... bez nagłych zmian w ciągu 2h

Sprawdź też: Prognoza pogody Warszawa


Warszawa-Modlin (EPMO)

METAR = EPMO 260930Z 33003KT 280V010 6000 BKN007 BKN011 01/01 Q1025 =

STACJA........... EPMO - Warszawa-Modlin (WMI)
POMIAR........... Sat Nov 26, 10:30 CET
WIATR............ północno północno-zachodni (NNW) z prędkością 6 km/h
WIDZIALNOŚĆ...... 6000 metrów
CHMURY........... zachmurzenie średnie (5/8-7/8)
TEMPERATURA...... 1°C
T.PUNKTU ROSY.... 1°C
WILGOTNOŚĆ....... 100%
T.ODCZUWALNA..... -1°C
CIŚNIENIE........ 1025 hPa
CIŚN.BEZWZGL..... 1012 hPa

Sprawdź też: Prognoza pogody Nowy Dwór Mazowiecki


Kraków-Balice (EPKK)

METAR = EPKK 260930Z 23004KT 6000 BKN053 05/04 Q1025

STACJA........... EPKK - Kraków-Balice (KRK)
POMIAR........... Sat Nov 26, 10:30 CET
WIATR............ południowo-zachodni (SW) z prędkością 7 km/h
WIDZIALNOŚĆ...... 6000 metrów
CHMURY........... zachmurzenie średnie (5/8-7/8)
TEMPERATURA...... 5°C
T.PUNKTU ROSY.... 4°C
WILGOTNOŚĆ....... 93%
T.ODCZUWALNA..... 3°C
CIŚNIENIE........ 1025 hPa
CIŚN.BEZWZGL..... 995 hPa

Sprawdź też: Prognoza pogody Kraków


Łódź-Lublinek (EPLL)

METAR = EPLL 260930Z 32004KT 280V340 0400 R25/0650N -DZ FG VV001 02/02 Q1025

STACJA........... EPLL - Łódź-Lublinek (LCJ)
POMIAR........... Sat Nov 26, 10:30 CET
WIATR............ północno zachodni (NW) z prędkością 7 km/h
WIDZIALNOŚĆ...... 400 metrów
WARUNKI.......... słaby: mżawka & mgła 
CHMURY........... widzialność pionowa do 30 metrów
TEMPERATURA...... 2°C
T.PUNKTU ROSY.... 2°C
WILGOTNOŚĆ....... 100%
T.ODCZUWALNA..... 0°C
CIŚNIENIE........ 1025 hPa
CIŚN.BEZWZGL..... 1002 hPa

Sprawdź też: Prognoza pogody Łódź


Wrocław-Strachowice (EPWR)

METAR = EPWR 260930Z 34007KT 9000 -RA BKN003 BKN005 07/06 Q1026

STACJA........... EPWR - Wrocław-Strachowice (WRO)
POMIAR........... Sat Nov 26, 10:30 CET
WIATR............ północno północno-zachodni (NNW) z prędkością 13 km/h
WIDZIALNOŚĆ...... 9000 metrów
WARUNKI.......... słaby: deszcz 
CHMURY........... zachmurzenie średnie (5/8-7/8)
TEMPERATURA...... 7°C
T.PUNKTU ROSY.... 6°C
WILGOTNOŚĆ....... 93%
T.ODCZUWALNA..... 5°C
CIŚNIENIE........ 1026 hPa
CIŚN.BEZWZGL..... 1011 hPa

Sprawdź też: Prognoza pogody Wrocław


Katowice-Pyrzowice (EPKT)

METAR = EPKT 260930Z 23003KT 1300 R26/1600D -RA BR OVC002 04/04 Q1025

STACJA........... EPKT - Katowice-Pyrzowice (KTW)
POMIAR........... Sat Nov 26, 10:30 CET
WIATR............ południowo-zachodni (SW) z prędkością 6 km/h
WIDZIALNOŚĆ...... 1300 metrów
WARUNKI.......... słaby: deszcz & zamglenie 
CHMURY........... zachmurzenie całkowite (8/8)
TEMPERATURA...... 4°C
T.PUNKTU ROSY.... 4°C
WILGOTNOŚĆ....... 100%
T.ODCZUWALNA..... 3°C
CIŚNIENIE........ 1025 hPa
CIŚN.BEZWZGL..... 987 hPa

Sprawdź też: Prognoza pogody Katowice


Gdańsk (EPGD)

METAR = EPGD 260930Z 26004KT 6000 FEW012 OVC016 01/01 Q1025

STACJA........... EPGD - Gdańsk im. Lecha Wałęsy (GDN)
POMIAR........... Sat Nov 26, 10:30 CET
WIATR............ zachodni (W) z prędkością 7 km/h
WIDZIALNOŚĆ...... 6000 metrów
CHMURY........... zachmurzenie całkowite (8/8)
TEMPERATURA...... 1°C
T.PUNKTU ROSY.... 1°C
WILGOTNOŚĆ....... 100%
T.ODCZUWALNA..... -1°C
CIŚNIENIE........ 1025 hPa
CIŚN.BEZWZGL..... 1006 hPa

Sprawdź też: Prognoza pogody Gdańsk


Poznań-Ławica (EPPO)

METAR = EPPO 260930Z 32003KT 1100 R28/P2000N BR OVC002 03/03 Q1026

STACJA........... EPPO - Poznań-Ławica (POZ)
POMIAR........... Sat Nov 26, 10:30 CET
WIATR............ północno zachodni (NW) z prędkością 6 km/h
WIDZIALNOŚĆ...... 1100 metrów
WARUNKI.......... zamglenie 
CHMURY........... zachmurzenie całkowite (8/8)
TEMPERATURA...... 3°C
T.PUNKTU ROSY.... 3°C
WILGOTNOŚĆ....... 100%
T.ODCZUWALNA..... 1°C
CIŚNIENIE........ 1026 hPa
CIŚN.BEZWZGL..... 1014 hPa

Sprawdź też: Prognoza pogody Poznań


Rzeszów-Jasionka (EPRZ)

METAR = EPRZ 260930Z 25008KT 230V310 8000 BKN015 05/03 Q1025

STACJA........... EPRZ - Rzeszów-Jasionka (RZE)
POMIAR........... Sat Nov 26, 10:30 CET
WIATR............ zachodni południowo-zachodni (WSW) z prędkością 15 km/h
WIDZIALNOŚĆ...... 8000 metrów
CHMURY........... zachmurzenie średnie (5/8-7/8)
TEMPERATURA...... 5°C
T.PUNKTU ROSY.... 3°C
WILGOTNOŚĆ....... 87%
T.ODCZUWALNA..... 2°C
CIŚNIENIE........ 1025 hPa
CIŚN.BEZWZGL..... 999 hPa

Sprawdź też: Prognoza pogody Rzeszów


Szczecin-Goleniów (EPSC)

METAR = EPSC 260930Z VRB02KT 6000 OVC002 03/03 Q1027

STACJA........... EPSC - Szczecin-Goleniów (SZZ)
POMIAR........... Sat Nov 26, 10:30 CET
WIATR............ zmienny z prędkością 4 km/h
WIDZIALNOŚĆ...... 6000 metrów
CHMURY........... zachmurzenie całkowite (8/8)
TEMPERATURA...... 3°C
T.PUNKTU ROSY.... 3°C
WILGOTNOŚĆ....... 100%
CIŚNIENIE........ 1027 hPa
CIŚN.BEZWZGL..... 1021 hPa

Sprawdź też: Prognoza pogody Szczecin


Lublin-Świdnik (EPLB)

METAR = EPLB 260930Z 27004KT 0150 R25/0250N FG VV002 02/02 Q1024 =

STACJA........... EPLB - Lublin-Świdnik (LUZ)
POMIAR........... Sat Nov 26, 10:30 CET
WIATR............ zachodni (W) z prędkością 7 km/h
WIDZIALNOŚĆ...... 150 metrów
WARUNKI.......... mgła 
CHMURY........... widzialność pionowa do 61 metrów
TEMPERATURA...... 2°C
T.PUNKTU ROSY.... 2°C
WILGOTNOŚĆ....... 100%
T.ODCZUWALNA..... 0°C
CIŚNIENIE........ 1024 hPa
CIŚN.BEZWZGL..... 998 hPa

Sprawdź też: Prognoza pogody Lublin


Bydgoszcz-Szwederowo (EPBY)

METAR = EPBY 260930Z VRB02KT 3000 BR OVC002 M02/M02 Q1027=

STACJA........... EPBY - Bydgoszcz-Szwederowo (BZG)
POMIAR........... Sat Nov 26, 10:30 CET
WIATR............ zmienny z prędkością 4 km/h
WIDZIALNOŚĆ...... 3000 metrów
WARUNKI.......... zamglenie 
CHMURY........... zachmurzenie całkowite (8/8)
TEMPERATURA...... -2°C
T.PUNKTU ROSY.... -2°C
WILGOTNOŚĆ....... 100%
CIŚNIENIE........ 1027 hPa
CIŚN.BEZWZGL..... 1018 hPa

Sprawdź też: Prognoza pogody Bydgoszcz


Zielona Góra-Babimost (EPZG)

METAR = EPZG 260930Z 29003KT 260V330 8000 -RA BKN005 OVC030 05/05 Q1027 =

STACJA........... EPZG - Zielona Góra-Babimost (IEG)
POMIAR........... Sat Nov 26, 10:30 CET
WIATR............ zachodni północno-zachodni (WNW) z prędkością 6 km/h
WIDZIALNOŚĆ...... 8000 metrów
WARUNKI.......... słaby: deszcz 
CHMURY........... zachmurzenie całkowite (8/8)
TEMPERATURA...... 5°C
T.PUNKTU ROSY.... 5°C
WILGOTNOŚĆ....... 100%
T.ODCZUWALNA..... 4°C
CIŚNIENIE........ 1027 hPa
CIŚN.BEZWZGL..... 1020 hPa

Sprawdź też: Prognoza pogody Zielona Góra


Szymany Olsztyn-Mazury (EPSY)

METAR = EPSY 260930Z 01003KT 3900 BR FEW005 BKN008 M01/M01 Q1025=

STACJA........... EPSY - Olsztyn-Mazury (SZY)
POMIAR........... Sat Nov 26, 10:30 CET
WIATR............ północny (N) z prędkością 6 km/h
WIDZIALNOŚĆ...... 3900 metrów
WARUNKI.......... zamglenie 
CHMURY........... zachmurzenie średnie (5/8-7/8)
TEMPERATURA...... -1°C
T.PUNKTU ROSY.... -1°C
WILGOTNOŚĆ....... 100%
T.ODCZUWALNA..... -3°C
CIŚNIENIE........ 1025 hPa
CIŚN.BEZWZGL..... 1007 hPa

Sprawdź też: Prognoza pogody Olsztyn


Cewice (EPCE)

METAR = 

STACJA........... EPCE - Cewice
POMIAR........... Thu Jan 1, 02:00 CET
BŁĄD............. Dane niedostępne.

Darłowo (EPDA)

METAR = 

STACJA........... EPDA - Darłowo
POMIAR........... Thu Jan 1, 02:00 CET
BŁĄD............. Dane niedostępne.

Dęblin (EPDE)

METAR = 

STACJA........... EPDE - Dęblin
POMIAR........... Thu Jan 1, 02:00 CET
BŁĄD............. Dane niedostępne.

Inowrocław-Latkowo (EPIR)

METAR = 

STACJA........... EPIR - Inowrocław-Latkowo
POMIAR........... Thu Jan 1, 02:00 CET
BŁĄD............. Dane niedostępne.

Poznań-Krzesiny (EPKS)

METAR = 

STACJA........... EPKS - Poznań-Krzesiny
POMIAR........... Thu Jan 1, 02:00 CET
BŁĄD............. Dane niedostępne.

Łask (EPLK)

METAR = 

STACJA........... EPLK - Łask
POMIAR........... Thu Jan 1, 02:00 CET
BŁĄD............. Dane niedostępne.

Łęczyca (EPLY)

METAR = 

STACJA........... EPLY - Łęczyca
POMIAR........... Thu Jan 1, 02:00 CET
BŁĄD............. Dane niedostępne.

Malbork (EPMB)

METAR = 

STACJA........... EPMB - Malbork
POMIAR........... Thu Jan 1, 02:00 CET
BŁĄD............. Dane niedostępne.

Mirosławiec (EPMI)

METAR = 

STACJA........... EPMI - Mirosławiec
POMIAR........... Thu Jan 1, 02:00 CET
BŁĄD............. Dane niedostępne.

Mińsk Mazowiecki (EPMM)

METAR = 

STACJA........... EPMM - Mińsk Mazowiecki
POMIAR........... Thu Jan 1, 02:00 CET
BŁĄD............. Dane niedostępne.

Nadarzyce (EPNA)

METAR = 

STACJA........... EPNA - Nadarzyce
POMIAR........... Thu Jan 1, 02:00 CET
BŁĄD............. Dane niedostępne.

Gdynia-Kosakowo (EPOK)

METAR = 

STACJA........... EPOK - Gdynia-Kosakowo
POMIAR........... Thu Jan 1, 02:00 CET
BŁĄD............. Dane niedostępne.

Pruszcz Gdański (EPPR)

METAR = 

STACJA........... EPPR - Pruszcz Gdański
POMIAR........... Thu Jan 1, 02:00 CET
BŁĄD............. Dane niedostępne.

Powidz (EPPW)

METAR = 

STACJA........... EPPW - Powidz
POMIAR........... Thu Jan 1, 02:00 CET
BŁĄD............. Dane niedostępne.

Radom-Sadków (EPRA)

METAR = 

STACJA........... EPRA - Radom-Sadków
POMIAR........... Thu Jan 1, 02:00 CET
BŁĄD............. Dane niedostępne.

Świdwin (EPSN)

METAR = 

STACJA........... EPSN - Świdwin
POMIAR........... Thu Jan 1, 02:00 CET
BŁĄD............. Dane niedostępne.

Tomaszów Mazowiecki (EPTM)

METAR = 

STACJA........... EPTM - Tomaszów Mazowiecki
POMIAR........... Thu Jan 1, 02:00 CET
BŁĄD............. Dane niedostępne.